sensor_id;sensor_type;location;lat;lon;timestamp;P1;durP1;ratioP1;P2;durP2;ratioP2
15878;SDS011;61999;51.514;14.614;2022-08-07T00:00:04;4.53;;;4.17;;
15878;SDS011;61999;51.514;14.614;2022-08-07T00:02:34;3.30;;;2.43;;
15878;SDS011;61999;51.514;14.614;2022-08-07T00:05:03;2.90;;;2.37;;
15878;SDS011;61999;51.514;14.614;2022-08-07T00:07:32;2.80;;;2.60;;
15878;SDS011;61999;51.514;14.614;2022-08-07T00:10:00;3.77;;;3.47;;
15878;SDS011;61999;51.514;14.614;2022-08-07T00:12:44;2.40;;;2.20;;
15878;SDS011;61999;51.514;14.614;2022-08-07T00:15:13;2.63;;;2.43;;
15878;SDS011;61999;51.514;14.614;2022-08-07T00:17:42;2.97;;;2.33;;
15878;SDS011;61999;51.514;14.614;2022-08-07T00:20:10;2.90;;;2.70;;
15878;SDS011;61999;51.514;14.614;2022-08-07T00:22:39;3.80;;;3.50;;
15878;SDS011;61999;51.514;14.614;2022-08-07T00:25:07;3.83;;;3.53;;
15878;SDS011;61999;51.514;14.614;2022-08-07T00:27:36;4.17;;;3.60;;
15878;SDS011;61999;51.514;14.614;2022-08-07T00:30:05;3.70;;;3.40;;
15878;SDS011;61999;51.514;14.614;2022-08-07T00:32:36;4.37;;;3.20;;
15878;SDS011;61999;51.514;14.614;2022-08-07T00:35:04;6.07;;;3.70;;
15878;SDS011;61999;51.514;14.614;2022-08-07T00:37:34;4.13;;;3.73;;
15878;SDS011;61999;51.514;14.614;2022-08-07T00:40:02;4.70;;;4.30;;
15878;SDS011;61999;51.514;14.614;2022-08-07T00:42:32;5.03;;;4.20;;
15878;SDS011;61999;51.514;14.614;2022-08-07T00:45:02;3.47;;;3.17;;
15878;SDS011;61999;51.514;14.614;2022-08-07T00:47:31;3.67;;;3.00;;
15878;SDS011;61999;51.514;14.614;2022-08-07T00:50:01;4.27;;;3.23;;
15878;SDS011;61999;51.514;14.614;2022-08-07T00:52:30;2.63;;;2.43;;
15878;SDS011;61999;51.514;14.614;2022-08-07T00:55:00;3.00;;;2.70;;
15878;SDS011;61999;51.514;14.614;2022-08-07T00:57:29;3.23;;;2.87;;
15878;SDS011;61999;51.514;14.614;2022-08-07T00:59:57;3.20;;;2.87;;
15878;SDS011;61999;51.514;14.614;2022-08-07T01:02:25;3.80;;;3.07;;
15878;SDS011;61999;51.514;14.614;2022-08-07T01:04:54;3.00;;;2.10;;
15878;SDS011;61999;51.514;14.614;2022-08-07T01:07:25;2.20;;;2.00;;
15878;SDS011;61999;51.514;14.614;2022-08-07T01:09:55;2.27;;;2.07;;
15878;SDS011;61999;51.514;14.614;2022-08-07T01:12:23;2.60;;;2.27;;
15878;SDS011;61999;51.514;14.614;2022-08-07T01:14:51;2.53;;;2.33;;
15878;SDS011;61999;51.514;14.614;2022-08-07T01:17:23;3.17;;;2.50;;
15878;SDS011;61999;51.514;14.614;2022-08-07T01:19:52;3.20;;;2.87;;
15878;SDS011;61999;51.514;14.614;2022-08-07T01:22:29;3.10;;;2.50;;
15878;SDS011;61999;51.514;14.614;2022-08-07T01:24:57;2.17;;;2.03;;
15878;SDS011;61999;51.514;14.614;2022-08-07T01:27:27;2.50;;;2.30;;
15878;SDS011;61999;51.514;14.614;2022-08-07T01:29:55;3.13;;;2.80;;
15878;SDS011;61999;51.514;14.614;2022-08-07T01:32:24;4.27;;;3.40;;
15878;SDS011;61999;51.514;14.614;2022-08-07T01:34:52;3.70;;;2.73;;
15878;SDS011;61999;51.514;14.614;2022-08-07T01:37:21;2.83;;;2.60;;
15878;SDS011;61999;51.514;14.614;2022-08-07T01:39:52;3.40;;;3.10;;
15878;SDS011;61999;51.514;14.614;2022-08-07T01:42:24;4.80;;;3.87;;
15878;SDS011;61999;51.514;14.614;2022-08-07T01:44:52;5.90;;;5.20;;
15878;SDS011;61999;51.514;14.614;2022-08-07T01:47:21;8.30;;;6.70;;
15878;SDS011;61999;51.514;14.614;2022-08-07T01:49:49;7.57;;;5.87;;
15878;SDS011;61999;51.514;14.614;2022-08-07T01:52:18;5.90;;;5.33;;
15878;SDS011;61999;51.514;14.614;2022-08-07T01:54:51;5.73;;;4.97;;
15878;SDS011;61999;51.514;14.614;2022-08-07T01:57:24;3.60;;;3.30;;
15878;SDS011;61999;51.514;14.614;2022-08-07T01:59:59;2.80;;;2.60;;
15878;SDS011;61999;51.514;14.614;2022-08-07T02:02:32;2.50;;;2.30;;
15878;SDS011;61999;51.514;14.614;2022-08-07T02:05:09;2.93;;;2.00;;
15878;SDS011;61999;51.514;14.614;2022-08-07T02:07:45;1.90;;;1.80;;
15878;SDS011;61999;51.514;14.614;2022-08-07T02:10:21;5.63;;;1.87;;
15878;SDS011;61999;51.514;14.614;2022-08-07T02:12:56;1.73;;;1.63;;
15878;SDS011;61999;51.514;14.614;2022-08-07T02:15:28;1.73;;;1.63;;
15878;SDS011;61999;51.514;14.614;2022-08-07T02:17:58;4.67;;;1.60;;
15878;SDS011;61999;51.514;14.614;2022-08-07T02:20:30;1.67;;;1.57;;
15878;SDS011;61999;51.514;14.614;2022-08-07T02:23:00;1.80;;;1.43;;
15878;SDS011;61999;51.514;14.614;2022-08-07T02:25:34;4.30;;;3.90;;
15878;SDS011;61999;51.514;14.614;2022-08-07T02:28:06;7.30;;;6.50;;
15878;SDS011;61999;51.514;14.614;2022-08-07T02:30:35;8.10;;;7.30;;
15878;SDS011;61999;51.514;14.614;2022-08-07T02:33:06;6.87;;;6.27;;
15878;SDS011;61999;51.514;14.614;2022-08-07T02:35:36;6.63;;;6.03;;
15878;SDS011;61999;51.514;14.614;2022-08-07T02:38:06;6.63;;;5.97;;
15878;SDS011;61999;51.514;14.614;2022-08-07T02:40:37;7.23;;;6.53;;
15878;SDS011;61999;51.514;14.614;2022-08-07T02:43:06;6.47;;;5.73;;
15878;SDS011;61999;51.514;14.614;2022-08-07T02:45:36;5.27;;;4.77;;
15878;SDS011;61999;51.514;14.614;2022-08-07T02:48:08;5.40;;;4.90;;
15878;SDS011;61999;51.514;14.614;2022-08-07T02:50:38;9.27;;;6.93;;
15878;SDS011;61999;51.514;14.614;2022-08-07T02:53:11;14.90;;;10.23;;
15878;SDS011;61999;51.514;14.614;2022-08-07T02:55:47;14.17;;;9.97;;
15878;SDS011;61999;51.514;14.614;2022-08-07T02:58:19;14.17;;;9.20;;
15878;SDS011;61999;51.514;14.614;2022-08-07T03:00:51;10.80;;;5.73;;
15878;SDS011;61999;51.514;14.614;2022-08-07T03:03:23;4.63;;;3.70;;
15878;SDS011;61999;51.514;14.614;2022-08-07T03:05:57;3.60;;;2.33;;
15878;SDS011;61999;51.514;14.614;2022-08-07T03:08:28;1.63;;;1.23;;
15878;SDS011;61999;51.514;14.614;2022-08-07T03:10:58;2.00;;;1.30;;
15878;SDS011;61999;51.514;14.614;2022-08-07T03:13:28;1.23;;;1.10;;
15878;SDS011;61999;51.514;14.614;2022-08-07T03:15:56;5.60;;;1.27;;
15878;SDS011;61999;51.514;14.614;2022-08-07T03:18:26;1.17;;;1.07;;
15878;SDS011;61999;51.514;14.614;2022-08-07T03:20:55;1.60;;;1.50;;
15878;SDS011;61999;51.514;14.614;2022-08-07T03:23:23;2.73;;;1.40;;
15878;SDS011;61999;51.514;14.614;2022-08-07T03:25:54;1.13;;;1.10;;
15878;SDS011;61999;51.514;14.614;2022-08-07T03:28:26;1.47;;;1.37;;
15878;SDS011;61999;51.514;14.614;2022-08-07T03:30:57;1.40;;;1.30;;
15878;SDS011;61999;51.514;14.614;2022-08-07T03:33:40;1.40;;;1.30;;
15878;SDS011;61999;51.514;14.614;2022-08-07T03:36:11;2.20;;;1.50;;
15878;SDS011;61999;51.514;14.614;2022-08-07T03:38:41;3.10;;;2.90;;
15878;SDS011;61999;51.514;14.614;2022-08-07T03:41:14;3.07;;;2.87;;
15878;SDS011;61999;51.514;14.614;2022-08-07T03:43:43;2.37;;;2.27;;
15878;SDS011;61999;51.514;14.614;2022-08-07T03:46:13;3.00;;;2.80;;
15878;SDS011;61999;51.514;14.614;2022-08-07T03:48:42;3.50;;;3.20;;
15878;SDS011;61999;51.514;14.614;2022-08-07T03:51:11;2.87;;;2.67;;
15878;SDS011;61999;51.514;14.614;2022-08-07T03:53:41;2.90;;;2.60;;
15878;SDS011;61999;51.514;14.614;2022-08-07T03:56:10;2.60;;;2.40;;
15878;SDS011;61999;51.514;14.614;2022-08-07T03:58:45;1.70;;;1.60;;
15878;SDS011;61999;51.514;14.614;2022-08-07T04:01:14;1.43;;;1.33;;
15878;SDS011;61999;51.514;14.614;2022-08-07T04:03:44;1.43;;;1.20;;
15878;SDS011;61999;51.514;14.614;2022-08-07T04:06:13;1.07;;;1.07;;
15878;SDS011;61999;51.514;14.614;2022-08-07T04:08:42;1.40;;;1.30;;
15878;SDS011;61999;51.514;14.614;2022-08-07T04:11:12;2.87;;;2.67;;
15878;SDS011;61999;51.514;14.614;2022-08-07T04:13:42;3.40;;;2.70;;
15878;SDS011;61999;51.514;14.614;2022-08-07T04:16:12;2.60;;;2.40;;
15878;SDS011;61999;51.514;14.614;2022-08-07T04:18:41;2.37;;;2.20;;
15878;SDS011;61999;51.514;14.614;2022-08-07T04:21:10;2.73;;;2.20;;
15878;SDS011;61999;51.514;14.614;2022-08-07T04:23:39;2.17;;;2.00;;
15878;SDS011;61999;51.514;14.614;2022-08-07T04:26:09;2.53;;;2.10;;
15878;SDS011;61999;51.514;14.614;2022-08-07T04:28:39;2.37;;;2.17;;
15878;SDS011;61999;51.514;14.614;2022-08-07T04:31:08;1.60;;;1.50;;
15878;SDS011;61999;51.514;14.614;2022-08-07T04:33:37;1.73;;;1.63;;
15878;SDS011;61999;51.514;14.614;2022-08-07T04:36:07;2.00;;;1.90;;
15878;SDS011;61999;51.514;14.614;2022-08-07T04:38:36;1.70;;;1.53;;
15878;SDS011;61999;51.514;14.614;2022-08-07T04:41:06;1.30;;;1.30;;
15878;SDS011;61999;51.514;14.614;2022-08-07T04:43:36;1.30;;;1.30;;
15878;SDS011;61999;51.514;14.614;2022-08-07T04:46:10;1.60;;;1.50;;
15878;SDS011;61999;51.514;14.614;2022-08-07T04:48:49;1.30;;;1.20;;
15878;SDS011;61999;51.514;14.614;2022-08-07T04:51:32;1.47;;;1.10;;
15878;SDS011;61999;51.514;14.614;2022-08-07T04:54:11;1.30;;;1.20;;
15878;SDS011;61999;51.514;14.614;2022-08-07T04:56:49;4.20;;;1.67;;
15878;SDS011;61999;51.514;14.614;2022-08-07T04:59:29;1.00;;;1.00;;
15878;SDS011;61999;51.514;14.614;2022-08-07T05:02:04;1.47;;;1.10;;
15878;SDS011;61999;51.514;14.614;2022-08-07T05:04:41;1.13;;;1.13;;
15878;SDS011;61999;51.514;14.614;2022-08-07T05:07:26;1.27;;;1.17;;
15878;SDS011;61999;51.514;14.614;2022-08-07T05:10:11;1.30;;;1.20;;
15878;SDS011;61999;51.514;14.614;2022-08-07T05:12:50;1.60;;;1.50;;
15878;SDS011;61999;51.514;14.614;2022-08-07T05:15:29;1.40;;;1.27;;
15878;SDS011;61999;51.514;14.614;2022-08-07T05:18:06;2.43;;;1.40;;
15878;SDS011;61999;51.514;14.614;2022-08-07T05:20:42;1.93;;;1.57;;
15878;SDS011;61999;51.514;14.614;2022-08-07T05:23:16;2.07;;;1.80;;
15878;SDS011;61999;51.514;14.614;2022-08-07T05:25:50;1.63;;;1.53;;
15878;SDS011;61999;51.514;14.614;2022-08-07T05:28:21;1.80;;;1.70;;
15878;SDS011;61999;51.514;14.614;2022-08-07T05:30:55;3.00;;;1.53;;
15878;SDS011;61999;51.514;14.614;2022-08-07T05:33:26;3.10;;;1.70;;
15878;SDS011;61999;51.514;14.614;2022-08-07T05:35:58;2.00;;;1.80;;
15878;SDS011;61999;51.514;14.614;2022-08-07T05:38:28;1.80;;;1.70;;
15878;SDS011;61999;51.514;14.614;2022-08-07T05:40:57;2.13;;;1.80;;
15878;SDS011;61999;51.514;14.614;2022-08-07T05:43:28;2.40;;;1.50;;
15878;SDS011;61999;51.514;14.614;2022-08-07T05:45:58;2.17;;;1.90;;
15878;SDS011;61999;51.514;14.614;2022-08-07T05:48:28;2.70;;;1.90;;
15878;SDS011;61999;51.514;14.614;2022-08-07T05:50:57;3.93;;;1.80;;
15878;SDS011;61999;51.514;14.614;2022-08-07T05:53:29;1.60;;;1.50;;
15878;SDS011;61999;51.514;14.614;2022-08-07T05:55:57;2.07;;;1.60;;
15878;SDS011;61999;51.514;14.614;2022-08-07T05:58:27;2.13;;;1.70;;
15878;SDS011;61999;51.514;14.614;2022-08-07T06:00:58;2.73;;;1.70;;
15878;SDS011;61999;51.514;14.614;2022-08-07T06:03:29;3.53;;;2.00;;
15878;SDS011;61999;51.514;14.614;2022-08-07T06:06:00;2.20;;;1.87;;
15878;SDS011;61999;51.514;14.614;2022-08-07T06:08:29;6.43;;;4.53;;
15878;SDS011;61999;51.514;14.614;2022-08-07T06:10:59;3.47;;;3.00;;
15878;SDS011;61999;51.514;14.614;2022-08-07T06:13:28;5.57;;;4.20;;
15878;SDS011;61999;51.514;14.614;2022-08-07T06:15:56;8.30;;;4.80;;
15878;SDS011;61999;51.514;14.614;2022-08-07T06:18:29;5.53;;;4.27;;
15878;SDS011;61999;51.514;14.614;2022-08-07T06:20:59;4.40;;;3.20;;
15878;SDS011;61999;51.514;14.614;2022-08-07T06:23:31;5.87;;;3.80;;
15878;SDS011;61999;51.514;14.614;2022-08-07T06:26:00;5.10;;;3.90;;
15878;SDS011;61999;51.514;14.614;2022-08-07T06:28:30;6.70;;;4.83;;
15878;SDS011;61999;51.514;14.614;2022-08-07T06:31:00;6.47;;;4.10;;
15878;SDS011;61999;51.514;14.614;2022-08-07T06:33:28;6.00;;;4.07;;
15878;SDS011;61999;51.514;14.614;2022-08-07T06:35:57;5.43;;;4.67;;
15878;SDS011;61999;51.514;14.614;2022-08-07T06:38:25;3.73;;;3.43;;
15878;SDS011;61999;51.514;14.614;2022-08-07T06:40:54;4.27;;;3.17;;
15878;SDS011;61999;51.514;14.614;2022-08-07T06:43:25;3.57;;;3.27;;
15878;SDS011;61999;51.514;14.614;2022-08-07T06:46:02;3.67;;;3.10;;
15878;SDS011;61999;51.514;14.614;2022-08-07T06:48:31;3.67;;;3.23;;
15878;SDS011;61999;51.514;14.614;2022-08-07T06:51:01;2.83;;;2.57;;
15878;SDS011;61999;51.514;14.614;2022-08-07T06:53:40;3.10;;;2.70;;
15878;SDS011;61999;51.514;14.614;2022-08-07T06:56:11;4.73;;;2.80;;
15878;SDS011;61999;51.514;14.614;2022-08-07T06:58:41;5.13;;;3.60;;
15878;SDS011;61999;51.514;14.614;2022-08-07T07:01:14;2.83;;;2.63;;
15878;SDS011;61999;51.514;14.614;2022-08-07T07:03:43;3.10;;;2.80;;
15878;SDS011;61999;51.514;14.614;2022-08-07T07:06:12;4.43;;;3.27;;
15878;SDS011;61999;51.514;14.614;2022-08-07T07:08:40;2.80;;;2.60;;
15878;SDS011;61999;51.514;14.614;2022-08-07T07:11:08;3.97;;;2.47;;
15878;SDS011;61999;51.514;14.614;2022-08-07T07:13:38;2.43;;;2.10;;
15878;SDS011;61999;51.514;14.614;2022-08-07T07:16:15;2.50;;;1.90;;
15878;SDS011;61999;51.514;14.614;2022-08-07T07:18:49;4.10;;;2.17;;
15878;SDS011;61999;51.514;14.614;2022-08-07T07:21:25;2.80;;;2.20;;
15878;SDS011;61999;51.514;14.614;2022-08-07T07:23:59;1.90;;;1.80;;
15878;SDS011;61999;51.514;14.614;2022-08-07T07:26:28;2.93;;;2.10;;
15878;SDS011;61999;51.514;14.614;2022-08-07T07:29:03;2.20;;;1.90;;
15878;SDS011;61999;51.514;14.614;2022-08-07T07:31:40;3.17;;;1.80;;
15878;SDS011;61999;51.514;14.614;2022-08-07T07:34:15;1.70;;;1.60;;
15878;SDS011;61999;51.514;14.614;2022-08-07T07:36:49;2.93;;;1.70;;
15878;SDS011;61999;51.514;14.614;2022-08-07T07:39:20;2.20;;;2.00;;
15878;SDS011;61999;51.514;14.614;2022-08-07T07:41:52;3.63;;;2.17;;
15878;SDS011;61999;51.514;14.614;2022-08-07T07:44:24;1.90;;;1.40;;
15878;SDS011;61999;51.514;14.614;2022-08-07T07:46:56;1.77;;;1.67;;
15878;SDS011;61999;51.514;14.614;2022-08-07T07:49:30;1.90;;;1.70;;
15878;SDS011;61999;51.514;14.614;2022-08-07T07:52:04;2.27;;;1.40;;
15878;SDS011;61999;51.514;14.614;2022-08-07T07:54:33;2.30;;;1.40;;
15878;SDS011;61999;51.514;14.614;2022-08-07T07:57:03;1.23;;;1.13;;
15878;SDS011;61999;51.514;14.614;2022-08-07T07:59:34;1.73;;;1.57;;
15878;SDS011;61999;51.514;14.614;2022-08-07T08:02:08;1.83;;;1.40;;
15878;SDS011;61999;51.514;14.614;2022-08-07T08:04:39;2.13;;;1.50;;
15878;SDS011;61999;51.514;14.614;2022-08-07T08:07:10;1.73;;;1.47;;
15878;SDS011;61999;51.514;14.614;2022-08-07T08:09:41;1.53;;;1.40;;
15878;SDS011;61999;51.514;14.614;2022-08-07T08:12:15;1.43;;;1.33;;
15878;SDS011;61999;51.514;14.614;2022-08-07T08:15:02;1.73;;;1.40;;
15878;SDS011;61999;51.514;14.614;2022-08-07T08:17:32;1.60;;;1.27;;
15878;SDS011;61999;51.514;14.614;2022-08-07T08:20:04;1.17;;;1.00;;
15878;SDS011;61999;51.514;14.614;2022-08-07T08:22:37;1.40;;;1.30;;
15878;SDS011;61999;51.514;14.614;2022-08-07T08:25:25;2.07;;;1.10;;
15878;SDS011;61999;51.514;14.614;2022-08-07T08:28:19;1.37;;;0.87;;
15878;SDS011;61999;51.514;14.614;2022-08-07T08:30:52;1.00;;;0.90;;
15878;SDS011;61999;51.514;14.614;2022-08-07T08:33:26;0.87;;;0.87;;
15878;SDS011;61999;51.514;14.614;2022-08-07T08:35:59;1.07;;;0.90;;
15878;SDS011;61999;51.514;14.614;2022-08-07T08:38:30;1.47;;;1.10;;
15878;SDS011;61999;51.514;14.614;2022-08-07T08:41:04;1.70;;;0.90;;
15878;SDS011;61999;51.514;14.614;2022-08-07T08:43:46;1.27;;;1.00;;
15878;SDS011;61999;51.514;14.614;2022-08-07T08:46:28;1.40;;;1.03;;
15878;SDS011;61999;51.514;14.614;2022-08-07T08:49:15;1.07;;;0.90;;
15878;SDS011;61999;51.514;14.614;2022-08-07T08:51:54;2.00;;;0.87;;
15878;SDS011;61999;51.514;14.614;2022-08-07T08:54:34;1.43;;;0.90;;
15878;SDS011;61999;51.514;14.614;2022-08-07T08:57:16;1.23;;;0.80;;
15878;SDS011;61999;51.514;14.614;2022-08-07T08:59:58;1.80;;;0.70;;
15878;SDS011;61999;51.514;14.614;2022-08-07T09:02:33;1.20;;;0.67;;
15878;SDS011;61999;51.514;14.614;2022-08-07T09:05:17;2.50;;;0.70;;
15878;SDS011;61999;51.514;14.614;2022-08-07T09:07:56;0.67;;;0.67;;
15878;SDS011;61999;51.514;14.614;2022-08-07T09:10:40;0.60;;;0.60;;
15878;SDS011;61999;51.514;14.614;2022-08-07T09:13:18;0.60;;;0.53;;
15878;SDS011;61999;51.514;14.614;2022-08-07T09:16:01;0.77;;;0.50;;
15878;SDS011;61999;51.514;14.614;2022-08-07T09:18:51;1.43;;;0.53;;
15878;SDS011;61999;51.514;14.614;2022-08-07T09:21:43;1.50;;;0.50;;
15878;SDS011;61999;51.514;14.614;2022-08-07T09:24:30;0.50;;;0.40;;
15878;SDS011;61999;51.514;14.614;2022-08-07T09:27:15;0.67;;;0.60;;
15878;SDS011;61999;51.514;14.614;2022-08-07T09:29:56;0.63;;;0.37;;
15878;SDS011;61999;51.514;14.614;2022-08-07T09:32:45;0.67;;;0.50;;
15878;SDS011;61999;51.514;14.614;2022-08-07T09:35:35;1.83;;;1.07;;
15878;SDS011;61999;51.514;14.614;2022-08-07T09:38:18;5.30;;;2.80;;
15878;SDS011;61999;51.514;14.614;2022-08-07T09:41:05;5.57;;;3.07;;
15878;SDS011;61999;51.514;14.614;2022-08-07T09:43:50;3.33;;;2.23;;
15878;SDS011;61999;51.514;14.614;2022-08-07T09:46:41;2.13;;;0.80;;
15878;SDS011;61999;51.514;14.614;2022-08-07T09:49:32;1.43;;;0.80;;
15878;SDS011;61999;51.514;14.614;2022-08-07T09:52:16;0.87;;;0.70;;
15878;SDS011;61999;51.514;14.614;2022-08-07T09:54:55;0.73;;;0.50;;
15878;SDS011;61999;51.514;14.614;2022-08-07T10:00:49;1.20;;;0.70;;
15878;SDS011;61999;51.514;14.614;2022-08-07T10:03:35;0.90;;;0.52;;
15878;SDS011;61999;51.514;14.614;2022-08-07T10:09:34;0.80;;;0.60;;
15878;SDS011;61999;51.514;14.614;2022-08-07T10:12:29;2.05;;;0.70;;
15878;SDS011;61999;51.514;14.614;2022-08-07T10:21:37;1.25;;;0.68;;
15878;SDS011;61999;51.514;14.614;2022-08-07T10:24:21;0.90;;;0.47;;
15878;SDS011;61999;51.514;14.614;2022-08-07T10:27:28;1.47;;;0.67;;
15878;SDS011;61999;51.514;14.614;2022-08-07T10:30:14;1.27;;;1.07;;
15878;SDS011;61999;51.514;14.614;2022-08-07T10:32:59;0.90;;;0.50;;
15878;SDS011;61999;51.514;14.614;2022-08-07T10:36:03;0.90;;;0.60;;
15878;SDS011;61999;51.514;14.614;2022-08-07T10:38:51;1.97;;;1.10;;
15878;SDS011;61999;51.514;14.614;2022-08-07T10:41:28;1.00;;;0.73;;
15878;SDS011;61999;51.514;14.614;2022-08-07T10:44:05;2.22;;;0.95;;
15878;SDS011;61999;51.514;14.614;2022-08-07T10:46:46;0.70;;;0.63;;
15878;SDS011;61999;51.514;14.614;2022-08-07T10:49:22;2.60;;;1.08;;
15878;SDS011;61999;51.514;14.614;2022-08-07T10:52:05;1.33;;;0.85;;
15878;SDS011;61999;51.514;14.614;2022-08-07T10:54:41;2.45;;;0.85;;
15878;SDS011;61999;51.514;14.614;2022-08-07T10:57:18;1.58;;;0.85;;
15878;SDS011;61999;51.514;14.614;2022-08-07T11:00:03;1.02;;;0.88;;
15878;SDS011;61999;51.514;14.614;2022-08-07T11:02:36;1.98;;;1.30;;
15878;SDS011;61999;51.514;14.614;2022-08-07T11:05:17;0.90;;;0.90;;
15878;SDS011;61999;51.514;14.614;2022-08-07T11:08:01;1.30;;;0.88;;
15878;SDS011;61999;51.514;14.614;2022-08-07T11:10:46;0.90;;;0.90;;
15878;SDS011;61999;51.514;14.614;2022-08-07T11:13:28;1.45;;;1.08;;
15878;SDS011;61999;51.514;14.614;2022-08-07T11:16:07;1.08;;;1.08;;
15878;SDS011;61999;51.514;14.614;2022-08-07T11:18:47;1.00;;;1.00;;
15878;SDS011;61999;51.514;14.614;2022-08-07T11:21:26;1.45;;;1.35;;
15878;SDS011;61999;51.514;14.614;2022-08-07T11:24:07;2.03;;;1.15;;
15878;SDS011;61999;51.514;14.614;2022-08-07T11:26:48;1.30;;;1.20;;
15878;SDS011;61999;51.514;14.614;2022-08-07T11:29:31;1.58;;;1.10;;
15878;SDS011;61999;51.514;14.614;2022-08-07T11:32:11;1.63;;;0.80;;
15878;SDS011;61999;51.514;14.614;2022-08-07T11:34:45;1.67;;;1.08;;
15878;SDS011;61999;51.514;14.614;2022-08-07T11:37:24;3.10;;;1.10;;
15878;SDS011;61999;51.514;14.614;2022-08-07T11:40:17;1.08;;;1.00;;
15878;SDS011;61999;51.514;14.614;2022-08-07T11:43:00;1.20;;;1.10;;
15878;SDS011;61999;51.514;14.614;2022-08-07T11:45:49;1.05;;;1.00;;
15878;SDS011;61999;51.514;14.614;2022-08-07T11:48:49;1.35;;;1.20;;
15878;SDS011;61999;51.514;14.614;2022-08-07T11:51:46;1.20;;;1.10;;
15878;SDS011;61999;51.514;14.614;2022-08-07T11:54:35;0.80;;;0.80;;
15878;SDS011;61999;51.514;14.614;2022-08-07T11:57:24;0.80;;;0.80;;
15878;SDS011;61999;51.514;14.614;2022-08-07T12:00:03;1.80;;;0.93;;
15878;SDS011;61999;51.514;14.614;2022-08-07T12:05:44;0.77;;;0.77;;
15878;SDS011;61999;51.514;14.614;2022-08-07T12:08:32;0.80;;;0.80;;
15878;SDS011;61999;51.514;14.614;2022-08-07T12:11:12;0.80;;;0.80;;
15878;SDS011;61999;51.514;14.614;2022-08-07T12:13:51;0.90;;;0.90;;
15878;SDS011;61999;51.514;14.614;2022-08-07T12:16:26;1.00;;;0.90;;
15878;SDS011;61999;51.514;14.614;2022-08-07T12:19:00;1.50;;;0.90;;
15878;SDS011;61999;51.514;14.614;2022-08-07T12:21:43;0.77;;;0.77;;
15878;SDS011;61999;51.514;14.614;2022-08-07T12:24:24;0.70;;;0.70;;
15878;SDS011;61999;51.514;14.614;2022-08-07T12:27:06;1.00;;;0.90;;
15878;SDS011;61999;51.514;14.614;2022-08-07T12:29:41;1.08;;;0.98;;
15878;SDS011;61999;51.514;14.614;2022-08-07T12:32:21;1.10;;;1.00;;
15878;SDS011;61999;51.514;14.614;2022-08-07T12:35:01;0.80;;;0.80;;
15878;SDS011;61999;51.514;14.614;2022-08-07T12:37:35;0.73;;;0.73;;
15878;SDS011;61999;51.514;14.614;2022-08-07T12:40:06;1.00;;;0.90;;
15878;SDS011;61999;51.514;14.614;2022-08-07T12:42:49;1.75;;;1.02;;
15878;SDS011;61999;51.514;14.614;2022-08-07T12:45:21;1.40;;;1.30;;
15878;SDS011;61999;51.514;14.614;2022-08-07T12:47:58;3.28;;;2.97;;
15878;SDS011;61999;51.514;14.614;2022-08-07T12:50:38;4.65;;;3.17;;
15878;SDS011;61999;51.514;14.614;2022-08-07T12:53:21;3.08;;;2.85;;
15878;SDS011;61999;51.514;14.614;2022-08-07T12:56:01;2.72;;;2.50;;
15878;SDS011;61999;51.514;14.614;2022-08-07T12:58:42;4.22;;;2.80;;
15878;SDS011;61999;51.514;14.614;2022-08-07T13:01:17;4.57;;;2.53;;
15878;SDS011;61999;51.514;14.614;2022-08-07T13:04:04;3.22;;;2.42;;
15878;SDS011;61999;51.514;14.614;2022-08-07T13:07:13;3.38;;;2.08;;
15878;SDS011;61999;51.514;14.614;2022-08-07T13:10:22;2.92;;;2.60;;
15878;SDS011;61999;51.514;14.614;2022-08-07T13:16:21;3.00;;;2.70;;
15878;SDS011;61999;51.514;14.614;2022-08-07T13:18:59;3.35;;;2.47;;
15878;SDS011;61999;51.514;14.614;2022-08-07T13:21:42;3.75;;;2.40;;
15878;SDS011;61999;51.514;14.614;2022-08-07T13:24:18;3.08;;;2.55;;
15878;SDS011;61999;51.514;14.614;2022-08-07T13:26:54;2.78;;;2.05;;
15878;SDS011;61999;51.514;14.614;2022-08-07T13:29:36;3.15;;;2.00;;
15878;SDS011;61999;51.514;14.614;2022-08-07T13:32:17;4.25;;;1.80;;
15878;SDS011;61999;51.514;14.614;2022-08-07T13:34:55;2.95;;;2.10;;
15878;SDS011;61999;51.514;14.614;2022-08-07T13:37:36;2.30;;;1.90;;
15878;SDS011;61999;51.514;14.614;2022-08-07T13:40:18;1.67;;;1.45;;
15878;SDS011;61999;51.514;14.614;2022-08-07T13:43:00;2.15;;;1.95;;
15878;SDS011;61999;51.514;14.614;2022-08-07T13:45:33;2.35;;;2.15;;
15878;SDS011;61999;51.514;14.614;2022-08-07T13:48:06;1.00;;;0.90;;
15878;SDS011;61999;51.514;14.614;2022-08-07T13:50:39;1.00;;;1.00;;
15878;SDS011;61999;51.514;14.614;2022-08-07T13:53:08;0.93;;;0.90;;
15878;SDS011;61999;51.514;14.614;2022-08-07T13:55:46;1.40;;;1.20;;
15878;SDS011;61999;51.514;14.614;2022-08-07T13:58:18;1.25;;;1.15;;
15878;SDS011;61999;51.514;14.614;2022-08-07T14:01:06;3.08;;;1.90;;
15878;SDS011;61999;51.514;14.614;2022-08-07T14:03:39;4.90;;;2.20;;
15878;SDS011;61999;51.514;14.614;2022-08-07T14:06:10;1.40;;;1.30;;
15878;SDS011;61999;51.514;14.614;2022-08-07T14:08:42;1.10;;;1.00;;
15878;SDS011;61999;51.514;14.614;2022-08-07T14:11:18;1.10;;;1.10;;
15878;SDS011;61999;51.514;14.614;2022-08-07T14:13:51;1.50;;;1.15;;
15878;SDS011;61999;51.514;14.614;2022-08-07T14:16:28;1.00;;;1.00;;
15878;SDS011;61999;51.514;14.614;2022-08-07T14:19:10;1.52;;;1.20;;
15878;SDS011;61999;51.514;14.614;2022-08-07T14:21:45;1.58;;;0.90;;
15878;SDS011;61999;51.514;14.614;2022-08-07T14:24:19;0.80;;;0.80;;
15878;SDS011;61999;51.514;14.614;2022-08-07T14:26:53;1.20;;;1.10;;
15878;SDS011;61999;51.514;14.614;2022-08-07T14:29:29;1.25;;;1.15;;
15878;SDS011;61999;51.514;14.614;2022-08-07T14:32:04;0.95;;;0.95;;
15878;SDS011;61999;51.514;14.614;2022-08-07T14:34:38;1.05;;;0.98;;
15878;SDS011;61999;51.514;14.614;2022-08-07T14:37:12;1.20;;;1.10;;
15878;SDS011;61999;51.514;14.614;2022-08-07T14:39:44;1.50;;;1.40;;
15878;SDS011;61999;51.514;14.614;2022-08-07T14:42:14;0.90;;;0.90;;
15878;SDS011;61999;51.514;14.614;2022-08-07T14:44:56;1.42;;;1.27;;
15878;SDS011;61999;51.514;14.614;2022-08-07T14:47:29;4.25;;;1.90;;
15878;SDS011;61999;51.514;14.614;2022-08-07T14:49:59;3.15;;;1.50;;
15878;SDS011;61999;51.514;14.614;2022-08-07T14:52:33;1.52;;;1.40;;
15878;SDS011;61999;51.514;14.614;2022-08-07T14:55:04;1.98;;;1.38;;
15878;SDS011;61999;51.514;14.614;2022-08-07T14:57:35;1.33;;;1.23;;
15878;SDS011;61999;51.514;14.614;2022-08-07T15:00:08;1.38;;;1.10;;
15878;SDS011;61999;51.514;14.614;2022-08-07T15:02:41;1.80;;;1.70;;
15878;SDS011;61999;51.514;14.614;2022-08-07T15:05:16;3.90;;;1.45;;
15878;SDS011;61999;51.514;14.614;2022-08-07T15:07:49;2.50;;;1.30;;
15878;SDS011;61999;51.514;14.614;2022-08-07T15:10:21;1.20;;;1.10;;
15878;SDS011;61999;51.514;14.614;2022-08-07T15:12:52;1.42;;;1.00;;
15878;SDS011;61999;51.514;14.614;2022-08-07T15:15:32;1.92;;;1.25;;
15878;SDS011;61999;51.514;14.614;2022-08-07T15:18:07;1.90;;;1.30;;
15878;SDS011;61999;51.514;14.614;2022-08-07T15:20:42;2.05;;;1.10;;
15878;SDS011;61999;51.514;14.614;2022-08-07T15:23:14;1.40;;;1.30;;
15878;SDS011;61999;51.514;14.614;2022-08-07T15:25:55;1.30;;;1.20;;
15878;SDS011;61999;51.514;14.614;2022-08-07T15:28:26;1.30;;;1.20;;
15878;SDS011;61999;51.514;14.614;2022-08-07T15:31:02;1.30;;;1.20;;
15878;SDS011;61999;51.514;14.614;2022-08-07T15:33:37;1.88;;;1.20;;
15878;SDS011;61999;51.514;14.614;2022-08-07T15:36:08;2.05;;;1.00;;
15878;SDS011;61999;51.514;14.614;2022-08-07T15:38:38;1.20;;;1.20;;